sensor_id;sensor_type;location;lat;lon;timestamp;P1;durP1;ratioP1;P2;durP2;ratioP2
41480;SDS011;27217;51.220;5.308;2022-12-29T00:02:20;5.47;;;3.22;;
41480;SDS011;27217;51.220;5.308;2022-12-29T00:04:46;6.40;;;2.65;;
41480;SDS011;27217;51.220;5.308;2022-12-29T00:07:11;3.83;;;2.58;;
41480;SDS011;27217;51.220;5.308;2022-12-29T00:09:38;2.83;;;2.22;;
41480;SDS011;27217;51.220;5.308;2022-12-29T00:12:04;4.68;;;2.58;;
41480;SDS011;27217;51.220;5.308;2022-12-29T00:16:58;5.00;;;2.45;;
41480;SDS011;27217;51.220;5.308;2022-12-29T00:19:24;3.15;;;2.20;;
41480;SDS011;27217;51.220;5.308;2022-12-29T00:22:12;3.45;;;1.92;;
41480;SDS011;27217;51.220;5.308;2022-12-29T00:25:33;3.35;;;2.00;;
41480;SDS011;27217;51.220;5.308;2022-12-29T00:28:24;4.28;;;1.83;;
41480;SDS011;27217;51.220;5.308;2022-12-29T00:39:21;4.88;;;1.60;;
41480;SDS011;27217;51.220;5.308;2022-12-29T00:47:09;3.40;;;1.17;;
41480;SDS011;27217;51.220;5.308;2022-12-29T00:49:35;1.38;;;1.27;;
41480;SDS011;27217;51.220;5.308;2022-12-29T00:52:02;2.15;;;1.40;;
41480;SDS011;27217;51.220;5.308;2022-12-29T00:54:34;4.78;;;1.10;;
41480;SDS011;27217;51.220;5.308;2022-12-29T00:57:03;2.28;;;1.35;;
41480;SDS011;27217;51.220;5.308;2022-12-29T01:04:34;0.90;;;0.75;;
41480;SDS011;27217;51.220;5.308;2022-12-29T01:07:00;1.83;;;1.10;;
41480;SDS011;27217;51.220;5.308;2022-12-29T01:14:24;2.40;;;0.75;;
41480;SDS011;27217;51.220;5.308;2022-12-29T01:16:50;3.40;;;0.80;;
41480;SDS011;27217;51.220;5.308;2022-12-29T01:19:17;4.45;;;0.93;;
41480;SDS011;27217;51.220;5.308;2022-12-29T01:21:44;1.63;;;0.95;;
41480;SDS011;27217;51.220;5.308;2022-12-29T01:24:11;3.83;;;0.70;;
41480;SDS011;27217;51.220;5.308;2022-12-29T01:26:37;2.75;;;1.33;;
41480;SDS011;27217;51.220;5.308;2022-12-29T01:29:03;2.88;;;0.63;;
41480;SDS011;27217;51.220;5.308;2022-12-29T01:31:28;1.35;;;0.80;;
41480;SDS011;27217;51.220;5.308;2022-12-29T01:33:54;1.92;;;0.63;;
41480;SDS011;27217;51.220;5.308;2022-12-29T01:36:20;2.15;;;0.75;;
41480;SDS011;27217;51.220;5.308;2022-12-29T01:38:45;6.70;;;1.10;;
41480;SDS011;27217;51.220;5.308;2022-12-29T01:41:12;2.30;;;0.93;;
41480;SDS011;27217;51.220;5.308;2022-12-29T01:43:53;1.58;;;0.85;;
41480;SDS011;27217;51.220;5.308;2022-12-29T01:46:40;6.28;;;1.48;;
41480;SDS011;27217;51.220;5.308;2022-12-29T01:49:18;1.88;;;0.85;;
41480;SDS011;27217;51.220;5.308;2022-12-29T01:54:18;4.32;;;1.00;;
41480;SDS011;27217;51.220;5.308;2022-12-29T01:56:51;3.15;;;0.98;;
41480;SDS011;27217;51.220;5.308;2022-12-29T01:59:20;2.90;;;0.68;;
41480;SDS011;27217;51.220;5.308;2022-12-29T02:01:53;3.38;;;0.60;;
41480;SDS011;27217;51.220;5.308;2022-12-29T02:04:22;1.40;;;0.60;;
41480;SDS011;27217;51.220;5.308;2022-12-29T02:09:19;3.33;;;1.10;;
41480;SDS011;27217;51.220;5.308;2022-12-29T02:14:20;3.22;;;0.90;;
41480;SDS011;27217;51.220;5.308;2022-12-29T02:22:02;1.77;;;0.95;;
41480;SDS011;27217;51.220;5.308;2022-12-29T02:24:42;3.15;;;0.90;;
41480;SDS011;27217;51.220;5.308;2022-12-29T02:27:31;4.00;;;1.23;;
41480;SDS011;27217;51.220;5.308;2022-12-29T02:32:31;6.38;;;0.90;;
41480;SDS011;27217;51.220;5.308;2022-12-29T02:38:02;5.22;;;1.23;;
41480;SDS011;27217;51.220;5.308;2022-12-29T02:45:56;4.88;;;0.90;;
41480;SDS011;27217;51.220;5.308;2022-12-29T02:48:45;1.45;;;0.70;;
41480;SDS011;27217;51.220;5.308;2022-12-29T02:51:20;4.90;;;0.90;;
41480;SDS011;27217;51.220;5.308;2022-12-29T02:53:54;4.68;;;0.55;;
41480;SDS011;27217;51.220;5.308;2022-12-29T02:56:25;3.00;;;0.70;;
41480;SDS011;27217;51.220;5.308;2022-12-29T02:58:52;2.40;;;0.57;;
41480;SDS011;27217;51.220;5.308;2022-12-29T03:15:39;0.00;;;0.00;;
41480;SDS011;27217;51.220;5.308;2022-12-29T03:18:39;0.00;;;0.00;;
41480;SDS011;27217;51.220;5.308;2022-12-29T03:21:32;0.00;;;0.00;;
41480;SDS011;27217;51.220;5.308;2022-12-29T03:24:25;0.00;;;0.00;;
41480;SDS011;27217;51.220;5.308;2022-12-29T03:26:55;0.00;;;0.00;;
41480;SDS011;27217;51.220;5.308;2022-12-29T03:29:25;0.00;;;0.00;;
41480;SDS011;27217;51.220;5.308;2022-12-29T03:31:54;0.00;;;0.00;;
41480;SDS011;27217;51.220;5.308;2022-12-29T03:34:21;0.00;;;0.00;;
41480;SDS011;27217;51.220;5.308;2022-12-29T03:36:52;0.00;;;0.00;;
41480;SDS011;27217;51.220;5.308;2022-12-29T03:39:25;0.00;;;0.00;;
41480;SDS011;27217;51.220;5.308;2022-12-29T03:41:54;0.00;;;0.00;;
41480;SDS011;27217;51.220;5.308;2022-12-29T03:44:36;0.00;;;0.00;;
41480;SDS011;27217;51.220;5.308;2022-12-29T03:47:04;0.00;;;0.00;;
41480;SDS011;27217;51.220;5.308;2022-12-29T03:49:34;0.00;;;0.00;;
41480;SDS011;27217;51.220;5.308;2022-12-29T03:52:03;0.00;;;0.00;;
41480;SDS011;27217;51.220;5.308;2022-12-29T03:54:33;0.00;;;0.00;;
41480;SDS011;27217;51.220;5.308;2022-12-29T03:56:59;0.47;;;0.47;;
41480;SDS011;27217;51.220;5.308;2022-12-29T03:59:25;1.10;;;0.65;;
41480;SDS011;27217;51.220;5.308;2022-12-29T04:04:27;0.00;;;0.00;;
41480;SDS011;27217;51.220;5.308;2022-12-29T04:09:28;0.00;;;0.00;;
41480;SDS011;27217;51.220;5.308;2022-12-29T04:11:56;0.52;;;0.38;;
41480;SDS011;27217;51.220;5.308;2022-12-29T04:14:22;0.00;;;0.00;;
41480;SDS011;27217;51.220;5.308;2022-12-29T04:16:48;0.00;;;0.00;;
41480;SDS011;27217;51.220;5.308;2022-12-29T04:19:14;0.08;;;0.08;;
41480;SDS011;27217;51.220;5.308;2022-12-29T04:21:40;0.00;;;0.00;;
41480;SDS011;27217;51.220;5.308;2022-12-29T04:29:17;0.00;;;0.00;;
41480;SDS011;27217;51.220;5.308;2022-12-29T04:31:42;0.00;;;0.00;;
41480;SDS011;27217;51.220;5.308;2022-12-29T04:34:08;0.00;;;0.00;;
41480;SDS011;27217;51.220;5.308;2022-12-29T04:36:35;0.08;;;0.08;;
41480;SDS011;27217;51.220;5.308;2022-12-29T04:39:00;0.00;;;0.00;;
41480;SDS011;27217;51.220;5.308;2022-12-29T04:41:26;0.00;;;0.00;;
41480;SDS011;27217;51.220;5.308;2022-12-29T04:46:28;0.00;;;0.00;;
41480;SDS011;27217;51.220;5.308;2022-12-29T04:48:54;0.00;;;0.00;;
41480;SDS011;27217;51.220;5.308;2022-12-29T04:51:20;0.00;;;0.00;;
41480;SDS011;27217;51.220;5.308;2022-12-29T04:53:45;0.00;;;0.00;;
41480;SDS011;27217;51.220;5.308;2022-12-29T04:56:12;0.00;;;0.00;;
41480;SDS011;27217;51.220;5.308;2022-12-29T04:58:37;0.00;;;0.00;;
41480;SDS011;27217;51.220;5.308;2022-12-29T05:01:03;0.00;;;0.00;;
41480;SDS011;27217;51.220;5.308;2022-12-29T05:03:29;0.00;;;0.00;;
41480;SDS011;27217;51.220;5.308;2022-12-29T05:08:23;0.17;;;0.17;;
41480;SDS011;27217;51.220;5.308;2022-12-29T05:10:50;0.00;;;0.00;;
41480;SDS011;27217;51.220;5.308;2022-12-29T05:13:16;0.00;;;0.00;;
41480;SDS011;27217;51.220;5.308;2022-12-29T05:15:47;0.20;;;0.20;;
41480;SDS011;27217;51.220;5.308;2022-12-29T05:18:16;0.28;;;0.28;;
41480;SDS011;27217;51.220;5.308;2022-12-29T05:20:42;0.00;;;0.00;;
41480;SDS011;27217;51.220;5.308;2022-12-29T05:23:09;0.00;;;0.00;;
41480;SDS011;27217;51.220;5.308;2022-12-29T05:25:35;0.00;;;0.00;;
41480;SDS011;27217;51.220;5.308;2022-12-29T05:28:01;1.48;;;0.47;;
41480;SDS011;27217;51.220;5.308;2022-12-29T05:30:28;0.28;;;0.28;;
41480;SDS011;27217;51.220;5.308;2022-12-29T05:32:55;0.00;;;0.00;;
41480;SDS011;27217;51.220;5.308;2022-12-29T05:37:51;0.00;;;0.00;;
41480;SDS011;27217;51.220;5.308;2022-12-29T05:40:17;0.00;;;0.00;;
41480;SDS011;27217;51.220;5.308;2022-12-29T05:42:43;0.00;;;0.00;;
41480;SDS011;27217;51.220;5.308;2022-12-29T05:45:10;0.00;;;0.00;;
41480;SDS011;27217;51.220;5.308;2022-12-29T05:47:36;0.80;;;0.75;;
41480;SDS011;27217;51.220;5.308;2022-12-29T05:50:02;0.00;;;0.00;;
41480;SDS011;27217;51.220;5.308;2022-12-29T05:55:01;0.10;;;0.10;;
41480;SDS011;27217;51.220;5.308;2022-12-29T05:57:27;0.00;;;0.00;;
41480;SDS011;27217;51.220;5.308;2022-12-29T05:59:53;0.00;;;0.00;;
41480;SDS011;27217;51.220;5.308;2022-12-29T06:02:19;0.00;;;0.00;;
41480;SDS011;27217;51.220;5.308;2022-12-29T06:04:45;0.00;;;0.00;;
41480;SDS011;27217;51.220;5.308;2022-12-29T06:07:12;0.00;;;0.00;;
41480;SDS011;27217;51.220;5.308;2022-12-29T06:09:37;0.00;;;0.00;;
41480;SDS011;27217;51.220;5.308;2022-12-29T06:12:03;0.17;;;0.17;;
41480;SDS011;27217;51.220;5.308;2022-12-29T06:14:30;0.10;;;0.10;;
41480;SDS011;27217;51.220;5.308;2022-12-29T06:16:55;0.00;;;0.00;;
41480;SDS011;27217;51.220;5.308;2022-12-29T06:19:21;0.00;;;0.00;;
41480;SDS011;27217;51.220;5.308;2022-12-29T06:21:47;0.00;;;0.00;;
41480;SDS011;27217;51.220;5.308;2022-12-29T06:24:13;0.00;;;0.00;;
41480;SDS011;27217;51.220;5.308;2022-12-29T06:26:38;0.73;;;0.73;;
41480;SDS011;27217;51.220;5.308;2022-12-29T06:29:05;0.00;;;0.00;;
41480;SDS011;27217;51.220;5.308;2022-12-29T06:31:33;0.00;;;0.00;;
41480;SDS011;27217;51.220;5.308;2022-12-29T06:33:58;0.00;;;0.00;;
41480;SDS011;27217;51.220;5.308;2022-12-29T06:36:24;0.00;;;0.00;;
41480;SDS011;27217;51.220;5.308;2022-12-29T06:38:50;0.20;;;0.20;;
41480;SDS011;27217;51.220;5.308;2022-12-29T06:41:17;0.43;;;0.43;;
41480;SDS011;27217;51.220;5.308;2022-12-29T06:43:44;0.30;;;0.30;;
41480;SDS011;27217;51.220;5.308;2022-12-29T06:46:10;4.47;;;0.38;;
41480;SDS011;27217;51.220;5.308;2022-12-29T06:48:36;0.00;;;0.00;;
41480;SDS011;27217;51.220;5.308;2022-12-29T06:51:02;8.20;;;0.73;;
41480;SDS011;27217;51.220;5.308;2022-12-29T06:53:28;8.93;;;1.27;;
41480;SDS011;27217;51.220;5.308;2022-12-29T06:55:55;13.27;;;1.58;;
41480;SDS011;27217;51.220;5.308;2022-12-29T06:58:21;5.13;;;1.00;;
41480;SDS011;27217;51.220;5.308;2022-12-29T07:00:47;7.13;;;1.13;;
41480;SDS011;27217;51.220;5.308;2022-12-29T07:03:13;4.68;;;1.15;;
41480;SDS011;27217;51.220;5.308;2022-12-29T07:05:39;6.05;;;1.35;;
41480;SDS011;27217;51.220;5.308;2022-12-29T07:08:04;13.52;;;1.50;;
41480;SDS011;27217;51.220;5.308;2022-12-29T07:10:31;6.03;;;1.30;;
41480;SDS011;27217;51.220;5.308;2022-12-29T07:12:57;9.93;;;2.15;;
41480;SDS011;27217;51.220;5.308;2022-12-29T07:15:23;13.00;;;2.03;;
41480;SDS011;27217;51.220;5.308;2022-12-29T07:17:49;15.57;;;1.48;;
41480;SDS011;27217;51.220;5.308;2022-12-29T07:20:16;4.57;;;1.20;;
41480;SDS011;27217;51.220;5.308;2022-12-29T07:22:42;8.75;;;1.17;;
41480;SDS011;27217;51.220;5.308;2022-12-29T07:25:08;8.27;;;1.83;;
41480;SDS011;27217;51.220;5.308;2022-12-29T07:27:37;8.75;;;1.20;;
41480;SDS011;27217;51.220;5.308;2022-12-29T07:30:02;15.73;;;2.50;;
41480;SDS011;27217;51.220;5.308;2022-12-29T07:32:31;6.95;;;1.50;;
41480;SDS011;27217;51.220;5.308;2022-12-29T07:34:58;13.18;;;1.90;;
41480;SDS011;27217;51.220;5.308;2022-12-29T07:37:25;6.97;;;1.17;;
41480;SDS011;27217;51.220;5.308;2022-12-29T07:39:50;7.75;;;1.10;;
41480;SDS011;27217;51.220;5.308;2022-12-29T07:42:17;10.02;;;1.67;;
41480;SDS011;27217;51.220;5.308;2022-12-29T07:44:43;5.50;;;1.23;;
41480;SDS011;27217;51.220;5.308;2022-12-29T07:47:09;13.80;;;1.95;;
41480;SDS011;27217;51.220;5.308;2022-12-29T07:49:35;4.60;;;1.10;;
41480;SDS011;27217;51.220;5.308;2022-12-29T07:52:00;7.30;;;1.08;;
41480;SDS011;27217;51.220;5.308;2022-12-29T07:54:26;17.08;;;2.03;;
41480;SDS011;27217;51.220;5.308;2022-12-29T07:56:53;9.35;;;1.05;;
41480;SDS011;27217;51.220;5.308;2022-12-29T07:59:19;14.65;;;1.80;;
41480;SDS011;27217;51.220;5.308;2022-12-29T08:01:45;8.27;;;0.90;;
41480;SDS011;27217;51.220;5.308;2022-12-29T08:04:11;14.52;;;2.33;;
41480;SDS011;27217;51.220;5.308;2022-12-29T08:06:37;14.40;;;1.55;;
41480;SDS011;27217;51.220;5.308;2022-12-29T08:09:03;10.32;;;1.30;;
41480;SDS011;27217;51.220;5.308;2022-12-29T08:11:29;11.57;;;1.23;;
41480;SDS011;27217;51.220;5.308;2022-12-29T08:13:55;7.75;;;1.20;;
41480;SDS011;27217;51.220;5.308;2022-12-29T08:16:21;11.32;;;1.70;;
41480;SDS011;27217;51.220;5.308;2022-12-29T08:18:47;10.77;;;1.50;;
41480;SDS011;27217;51.220;5.308;2022-12-29T08:21:12;16.33;;;2.50;;
41480;SDS011;27217;51.220;5.308;2022-12-29T08:23:38;9.80;;;1.40;;
41480;SDS011;27217;51.220;5.308;2022-12-29T08:26:05;5.88;;;1.17;;
41480;SDS011;27217;51.220;5.308;2022-12-29T08:28:31;7.75;;;1.30;;
41480;SDS011;27217;51.220;5.308;2022-12-29T08:30:58;8.77;;;2.25;;
41480;SDS011;27217;51.220;5.308;2022-12-29T08:33:25;12.82;;;1.98;;
41480;SDS011;27217;51.220;5.308;2022-12-29T08:35:54;5.63;;;0.98;;
41480;SDS011;27217;51.220;5.308;2022-12-29T08:38:26;6.78;;;1.70;;
41480;SDS011;27217;51.220;5.308;2022-12-29T08:40:52;10.13;;;1.27;;
41480;SDS011;27217;51.220;5.308;2022-12-29T08:43:18;15.50;;;2.03;;
41480;SDS011;27217;51.220;5.308;2022-12-29T08:45:44;5.13;;;0.93;;
41480;SDS011;27217;51.220;5.308;2022-12-29T08:48:10;14.40;;;3.60;;
41480;SDS011;27217;51.220;5.308;2022-12-29T08:50:36;10.27;;;1.80;;
41480;SDS011;27217;51.220;5.308;2022-12-29T08:53:02;12.07;;;1.98;;
41480;SDS011;27217;51.220;5.308;2022-12-29T08:55:29;8.60;;;1.70;;
41480;SDS011;27217;51.220;5.308;2022-12-29T08:57:54;8.80;;;1.75;;
41480;SDS011;27217;51.220;5.308;2022-12-29T09:00:20;8.45;;;1.40;;
41480;SDS011;27217;51.220;5.308;2022-12-29T09:02:46;9.88;;;1.27;;
41480;SDS011;27217;51.220;5.308;2022-12-29T09:05:13;14.82;;;2.38;;
41480;SDS011;27217;51.220;5.308;2022-12-29T09:07:38;10.40;;;1.55;;
41480;SDS011;27217;51.220;5.308;2022-12-29T09:10:04;8.77;;;1.48;;
41480;SDS011;27217;51.220;5.308;2022-12-29T09:12:31;9.07;;;2.20;;
41480;SDS011;27217;51.220;5.308;2022-12-29T09:14:58;11.07;;;1.55;;
41480;SDS011;27217;51.220;5.308;2022-12-29T09:17:24;5.35;;;0.90;;
41480;SDS011;27217;51.220;5.308;2022-12-29T09:20:09;11.52;;;1.80;;
41480;SDS011;27217;51.220;5.308;2022-12-29T09:22:39;13.75;;;1.33;;
41480;SDS011;27217;51.220;5.308;2022-12-29T09:25:06;15.93;;;2.00;;
41480;SDS011;27217;51.220;5.308;2022-12-29T09:27:32;11.98;;;1.40;;
41480;SDS011;27217;51.220;5.308;2022-12-29T09:29:58;7.47;;;1.60;;
41480;SDS011;27217;51.220;5.308;2022-12-29T09:32:28;10.57;;;1.95;;
41480;SDS011;27217;51.220;5.308;2022-12-29T09:34:54;11.23;;;1.88;;
41480;SDS011;27217;51.220;5.308;2022-12-29T09:37:20;12.05;;;1.58;;
41480;SDS011;27217;51.220;5.308;2022-12-29T09:39:46;5.18;;;1.35;;
41480;SDS011;27217;51.220;5.308;2022-12-29T09:42:14;9.18;;;2.30;;
41480;SDS011;27217;51.220;5.308;2022-12-29T09:47:29;9.32;;;1.63;;
41480;SDS011;27217;51.220;5.308;2022-12-29T09:50:01;15.80;;;1.95;;
41480;SDS011;27217;51.220;5.308;2022-12-29T09:52:31;13.73;;;1.77;;
41480;SDS011;27217;51.220;5.308;2022-12-29T09:55:12;16.13;;;1.75;;
41480;SDS011;27217;51.220;5.308;2022-12-29T09:57:54;8.57;;;1.85;;
41480;SDS011;27217;51.220;5.308;2022-12-29T10:03:14;5.57;;;1.25;;
41480;SDS011;27217;51.220;5.308;2022-12-29T10:08:39;8.93;;;1.33;;
41480;SDS011;27217;51.220;5.308;2022-12-29T10:11:30;9.10;;;1.60;;
41480;SDS011;27217;51.220;5.308;2022-12-29T10:14:11;15.27;;;1.58;;
41480;SDS011;27217;51.220;5.308;2022-12-29T10:17:00;11.15;;;1.67;;
41480;SDS011;27217;51.220;5.308;2022-12-29T10:25:11;8.07;;;1.50;;
41480;SDS011;27217;51.220;5.308;2022-12-29T10:27:43;8.02;;;1.38;;
41480;SDS011;27217;51.220;5.308;2022-12-29T10:30:15;15.00;;;1.95;;
41480;SDS011;27217;51.220;5.308;2022-12-29T10:32:54;7.78;;;1.60;;
41480;SDS011;27217;51.220;5.308;2022-12-29T10:37:59;9.07;;;1.63;;
41480;SDS011;27217;51.220;5.308;2022-12-29T10:43:33;7.45;;;1.00;;
41480;SDS011;27217;51.220;5.308;2022-12-29T10:46:09;9.07;;;1.52;;
41480;SDS011;27217;51.220;5.308;2022-12-29T10:48:44;13.63;;;2.00;;
41480;SDS011;27217;51.220;5.308;2022-12-29T10:51:14;7.82;;;1.67;;
41480;SDS011;27217;51.220;5.308;2022-12-29T10:56:44;14.65;;;1.77;;
41480;SDS011;27217;51.220;5.308;2022-12-29T11:04:28;17.48;;;2.72;;
41480;SDS011;27217;51.220;5.308;2022-12-29T11:07:05;10.70;;;1.98;;
41480;SDS011;27217;51.220;5.308;2022-12-29T11:09:34;8.15;;;1.30;;
41480;SDS011;27217;51.220;5.308;2022-12-29T11:12:22;18.27;;;2.53;;
41480;SDS011;27217;51.220;5.308;2022-12-29T11:15:00;10.43;;;1.40;;
41480;SDS011;27217;51.220;5.308;2022-12-29T11:17:49;6.38;;;1.50;;
41480;SDS011;27217;51.220;5.308;2022-12-29T11:20:39;11.80;;;2.33;;
41480;SDS011;27217;51.220;5.308;2022-12-29T11:23:05;9.63;;;1.23;;
41480;SDS011;27217;51.220;5.308;2022-12-29T11:25:50;7.70;;;1.80;;
41480;SDS011;27217;51.220;5.308;2022-12-29T11:28:36;8.55;;;1.45;;
41480;SDS011;27217;51.220;5.308;2022-12-29T11:31:04;14.02;;;2.03;;
41480;SDS011;27217;51.220;5.308;2022-12-29T11:33:32;14.85;;;1.80;;
41480;SDS011;27217;51.220;5.308;2022-12-29T11:36:04;10.07;;;2.10;;
41480;SDS011;27217;51.220;5.308;2022-12-29T11:38:46;13.55;;;1.58;;
41480;SDS011;27217;51.220;5.308;2022-12-29T11:41:19;5.07;;;1.30;;
41480;SDS011;27217;51.220;5.308;2022-12-29T11:43:53;10.80;;;2.33;;
41480;SDS011;27217;51.220;5.308;2022-12-29T11:46:24;11.90;;;2.10;;
41480;SDS011;27217;51.220;5.308;2022-12-29T11:48:54;11.93;;;2.03;;
41480;SDS011;27217;51.220;5.308;2022-12-29T11:51:24;9.57;;;1.80;;
41480;SDS011;27217;51.220;5.308;2022-12-29T11:54:29;15.90;;;2.53;;
41480;SDS011;27217;51.220;5.308;2022-12-29T11:59:39;10.25;;;2.13;;
41480;SDS011;27217;51.220;5.308;2022-12-29T12:04:54;9.82;;;2.53;;
41480;SDS011;27217;51.220;5.308;2022-12-29T12:10:35;14.48;;;1.52;;
41480;SDS011;27217;51.220;5.308;2022-12-29T12:18:43;9.02;;;1.38;;
41480;SDS011;27217;51.220;5.308;2022-12-29T12:31:55;13.63;;;2.55;;
41480;SDS011;27217;51.220;5.308;2022-12-29T12:34:45;6.95;;;1.65;;
41480;SDS011;27217;51.220;5.308;2022-12-29T12:37:22;11.20;;;1.65;;
41480;SDS011;27217;51.220;5.308;2022-12-29T12:45:55;12.75;;;2.40;;
41480;SDS011;27217;51.220;5.308;2022-12-29T13:04:43;9.88;;;1.58;;
41480;SDS011;27217;51.220;5.308;2022-12-29T13:07:28;16.27;;;2.03;;
41480;SDS011;27217;51.220;5.308;2022-12-29T13:10:26;14.05;;;2.08;;
41480;SDS011;27217;51.220;5.308;2022-12-29T13:16:03;9.50;;;1.63;;
41480;SDS011;27217;51.220;5.308;2022-12-29T13:18:44;12.20;;;2.65;;
41480;SDS011;27217;51.220;5.308;2022-12-29T13:27:26;7.32;;;1.25;;
41480;SDS011;27217;51.220;5.308;2022-12-29T13:33:05;9.05;;;1.52;;
41480;SDS011;27217;51.220;5.308;2022-12-29T13:41:01;8.13;;;1.58;;
41480;SDS011;27217;51.220;5.308;2022-12-29T13:43:35;8.40;;;1.40;;
41480;SDS011;27217;51.220;5.308;2022-12-29T13:59:09;16.67;;;1.95;;
41480;SDS011;27217;51.220;5.308;2022-12-29T14:01:48;10.63;;;2.05;;
41480;SDS011;27217;51.220;5.308;2022-12-29T14:04:27;10.15;;;1.50;;
41480;SDS011;27217;51.220;5.308;2022-12-29T14:06:58;7.55;;;1.67;;
41480;SDS011;27217;51.220;5.308;2022-12-29T14:09:46;9.43;;;1.75;;
41480;SDS011;27217;51.220;5.308;2022-12-29T14:18:04;12.15;;;2.13;;
41480;SDS011;27217;51.220;5.308;2022-12-29T14:20:47;8.93;;;1.73;;
41480;SDS011;27217;51.220;5.308;2022-12-29T14:28:35;10.88;;;2.13;;
41480;SDS011;27217;51.220;5.308;2022-12-29T14:33:41;3.13;;;1.10;;
41480;SDS011;27217;51.220;5.308;2022-12-29T14:36:37;8.48;;;2.28;;
41480;SDS011;27217;51.220;5.308;2022-12-29T14:42:01;6.78;;;1.30;;
41480;SDS011;27217;51.220;5.308;2022-12-29T14:44:30;9.07;;;2.15;;
41480;SDS011;27217;51.220;5.308;2022-12-29T14:49:40;7.95;;;1.85;;
41480;SDS011;27217;51.220;5.308;2022-12-29T14:54:43;7.50;;;1.20;;
41480;SDS011;27217;51.220;5.308;2022-12-29T14:59:44;14.80;;;2.75;;
41480;SDS011;27217;51.220;5.308;2022-12-29T15:04:46;10.55;;;1.63;;
41480;SDS011;27217;51.220;5.308;2022-12-29T15:07:16;11.30;;;1.42;;
41480;SDS011;27217;51.220;5.308;2022-12-29T15:15:24;6.20;;;1.65;;
41480;SDS011;27217;51.220;5.308;2022-12-29T15:17:52;10.40;;;1.70;;
41480;SDS011;27217;51.220;5.308;2022-12-29T15:20:27;3.92;;;1.25;;
41480;SDS011;27217;51.220;5.308;2022-12-29T15:25:30;4.40;;;1.10;;
41480;SDS011;27217;51.220;5.308;2022-12-29T15:28:02;0.43;;;0.43;;
41480;SDS011;27217;51.220;5.308;2022-12-29T15:30:32;0.00;;;0.00;;
41480;SDS011;27217;51.220;5.308;2022-12-29T15:40:30;0.00;;;0.00;;
41480;SDS011;27217;51.220;5.308;2022-12-29T15:50:45;0.00;;;0.00;;
41480;SDS011;27217;51.220;5.308;2022-12-29T16:03:13;0.10;;;0.10;;
41480;SDS011;27217;51.220;5.308;2022-12-29T16:08:42;0.00;;;0.00;;
41480;SDS011;27217;51.220;5.308;2022-12-29T16:11:25;0.00;;;0.00;;
41480;SDS011;27217;51.220;5.308;2022-12-29T16:13:55;1.40;;;0.75;;
41480;SDS011;27217;51.220;5.308;2022-12-29T16:16:33;0.10;;;0.10;;
41480;SDS011;27217;51.220;5.308;2022-12-29T16:21:46;0.45;;;0.45;;
41480;SDS011;27217;51.220;5.308;2022-12-29T16:24:13;0.00;;;0.00;;
41480;SDS011;27217;51.220;5.308;2022-12-29T16:29:17;0.00;;;0.00;;
41480;SDS011;27217;51.220;5.308;2022-12-29T16:34:25;0.00;;;0.00;;
41480;SDS011;27217;51.220;5.308;2022-12-29T16:39:34;0.10;;;0.10;;
41480;SDS011;27217;51.220;5.308;2022-12-29T16:44:34;0.00;;;0.00;;
41480;SDS011;27217;51.220;5.308;2022-12-29T16:52:12;0.00;;;0.00;;
41480;SDS011;27217;51.220;5.308;2022-12-29T16:57:10;0.10;;;0.10;;
41480;SDS011;27217;51.220;5.308;2022-12-29T16:59:38;0.00;;;0.00;;
41480;SDS011;27217;51.220;5.308;2022-12-29T17:07:18;1.42;;;0.82;;
41480;SDS011;27217;51.220;5.308;2022-12-29T17:09:45;0.00;;;0.00;;
41480;SDS011;27217;51.220;5.308;2022-12-29T17:12:15;0.00;;;0.00;;
41480;SDS011;27217;51.220;5.308;2022-12-29T17:14:57;0.00;;;0.00;;
41480;SDS011;27217;51.220;5.308;2022-12-29T17:22:35;0.00;;;0.00;;
41480;SDS011;27217;51.220;5.308;2022-12-29T17:25:04;0.28;;;0.28;;
41480;SDS011;27217;51.220;5.308;2022-12-29T17:32:28;0.20;;;0.20;;
41480;SDS011;27217;51.220;5.308;2022-12-29T17:34:55;0.00;;;0.00;;
41480;SDS011;27217;51.220;5.308;2022-12-29T17:37:26;0.00;;;0.00;;
41480;SDS011;27217;51.220;5.308;2022-12-29T17:50:12;0.00;;;0.00;;
41480;SDS011;27217;51.220;5.308;2022-12-29T17:52:40;0.10;;;0.10;;
41480;SDS011;27217;51.220;5.308;2022-12-29T17:55:13;1.85;;;1.75;;
41480;SDS011;27217;51.220;5.308;2022-12-29T17:57:41;0.00;;;0.00;;
41480;SDS011;27217;51.220;5.308;2022-12-29T18:00:13;0.00;;;0.00;;
41480;SDS011;27217;51.220;5.308;2022-12-29T18:02:40;1.35;;;0.75;;
41480;SDS011;27217;51.220;5.308;2022-12-29T18:07:36;0.00;;;0.00;;
41480;SDS011;27217;51.220;5.308;2022-12-29T18:10:05;0.10;;;0.10;;
41480;SDS011;27217;51.220;5.308;2022-12-29T18:15:15;0.95;;;0.95;;
41480;SDS011;27217;51.220;5.308;2022-12-29T18:17:47;0.75;;;0.75;;
41480;SDS011;27217;51.220;5.308;2022-12-29T18:22:46;0.15;;;0.15;;
41480;SDS011;27217;51.220;5.308;2022-12-29T18:30:22;0.03;;;0.03;;
41480;SDS011;27217;51.220;5.308;2022-12-29T18:35:17;3.13;;;1.48;;
41480;SDS011;27217;51.220;5.308;2022-12-29T18:37:50;0.20;;;0.20;;
41480;SDS011;27217;51.220;5.308;2022-12-29T18:40:16;1.75;;;1.17;;
41480;SDS011;27217;51.220;5.308;2022-12-29T18:53:01;0.00;;;0.00;;
41480;SDS011;27217;51.220;5.308;2022-12-29T18:55:28;0.52;;;0.52;;
41480;SDS011;27217;51.220;5.308;2022-12-29T18:57:54;0.03;;;0.03;;
41480;SDS011;27217;51.220;5.308;2022-12-29T19:02:55;0.00;;;0.00;;
41480;SDS011;27217;51.220;5.308;2022-12-29T19:07:56;0.00;;;0.00;;
41480;SDS011;27217;51.220;5.308;2022-12-29T19:33:33;0.47;;;0.47;;
41480;SDS011;27217;51.220;5.308;2022-12-29T19:36:00;0.10;;;0.10;;
41480;SDS011;27217;51.220;5.308;2022-12-29T19:38:26;0.00;;;0.00;;
41480;SDS011;27217;51.220;5.308;2022-12-29T19:40:52;0.40;;;0.40;;
41480;SDS011;27217;51.220;5.308;2022-12-29T19:43:17;0.17;;;0.17;;
41480;SDS011;27217;51.220;5.308;2022-12-29T19:50:48;0.00;;;0.00;;
41480;SDS011;27217;51.220;5.308;2022-12-29T20:11:13;0.00;;;0.00;;
41480;SDS011;27217;51.220;5.308;2022-12-29T20:13:40;21.85;;;2.88;;
41480;SDS011;27217;51.220;5.308;2022-12-29T20:16:08;17.13;;;2.10;;
41480;SDS011;27217;51.220;5.308;2022-12-29T20:23:42;5.50;;;1.42;;
41480;SDS011;27217;51.220;5.308;2022-12-29T20:26:13;25.67;;;2.90;;
41480;SDS011;27217;51.220;5.308;2022-12-29T20:31:24;17.88;;;2.22;;
41480;SDS011;27217;51.220;5.308;2022-12-29T20:36:20;12.95;;;2.67;;
41480;SDS011;27217;51.220;5.308;2022-12-29T20:44:03;22.00;;;3.00;;
41480;SDS011;27217;51.220;5.308;2022-12-29T20:51:34;14.43;;;2.67;;
41480;SDS011;27217;51.220;5.308;2022-12-29T20:56:30;12.27;;;2.38;;
41480;SDS011;27217;51.220;5.308;2022-12-29T20:58:56;17.15;;;2.70;;
41480;SDS011;27217;51.220;5.308;2022-12-29T21:03:58;24.88;;;3.60;;
41480;SDS011;27217;51.220;5.308;2022-12-29T21:26:57;23.73;;;2.65;;
41480;SDS011;27217;51.220;5.308;2022-12-29T21:29:23;21.80;;;3.03;;
41480;SDS011;27217;51.220;5.308;2022-12-29T21:31:49;17.35;;;2.45;;
41480;SDS011;27217;51.220;5.308;2022-12-29T21:34:14;12.90;;;2.22;;
41480;SDS011;27217;51.220;5.308;2022-12-29T21:36:40;16.65;;;3.05;;
41480;SDS011;27217;51.220;5.308;2022-12-29T21:39:06;14.35;;;2.28;;
41480;SDS011;27217;51.220;5.308;2022-12-29T21:41:32;14.27;;;2.45;;
41480;SDS011;27217;51.220;5.308;2022-12-29T21:43:58;8.35;;;1.88;;
41480;SDS011;27217;51.220;5.308;2022-12-29T21:46:43;14.13;;;3.65;;
41480;SDS011;27217;51.220;5.308;2022-12-29T21:49:11;15.32;;;2.53;;
41480;SDS011;27217;51.220;5.308;2022-12-29T22:01:49;13.70;;;2.60;;
41480;SDS011;27217;51.220;5.308;2022-12-29T22:04:40;17.30;;;2.67;;
41480;SDS011;27217;51.220;5.308;2022-12-29T22:07:24;17.10;;;3.00;;
41480;SDS011;27217;51.220;5.308;2022-12-29T22:10:09;16.25;;;2.83;;
41480;SDS011;27217;51.220;5.308;2022-12-29T22:12:49;15.88;;;3.00;;
41480;SDS011;27217;51.220;5.308;2022-12-29T22:15:28;15.60;;;2.72;;